Time;durP1;ratioP1;P1;durP2;ratioP2;P2;SDS_P1;SDS_P2;PMS_P1;PMS_P2;Temp;Humidity;BMP_temperature;BMP_pressure;BME280_temperature;BME280_humidity;BME280_pressure;Samples;Min_cycle;Max_cycle;Signal;HPM_P1;HPM_P2
2022/02/20 00:02:05;;;;;;;42.57;5.27;;;7.80;99.90;;;;;;6356029;22;20177;-92
2022/02/20 00:04:45;;;;;;;0.53;0.53;;;7.70;99.90;;;;;;6366306;22;20166;-93
2022/02/20 00:07:17;;;;;;;0.70;0.50;;;7.60;99.90;;;;;;6348791;22;20169;-92
2022/02/20 00:09:49;;;;;;;1.00;0.53;;;7.60;99.90;;;;;;6335011;22;20173;-94
2022/02/20 00:12:20;;;;;;;2.97;0.90;;;7.60;99.90;;;;;;6360387;22;20632;-93
2022/02/20 00:14:55;;;;;;;0.60;0.50;;;7.50;99.90;;;;;;6331916;22;20187;-93
2022/02/20 00:17:27;;;;;;;1.10;0.50;;;7.60;99.90;;;;;;6356435;22;20177;-93
2022/02/20 00:19:59;;;;;;;3.90;2.77;;;7.50;99.90;;;;;;6356613;22;20166;-93
2022/02/20 00:22:31;;;;;;;0.83;0.60;;;7.50;99.90;;;;;;6331392;22;20172;-93
2022/02/20 00:25:04;;;;;;;1.13;0.50;;;7.50;99.90;;;;;;6360825;22;20185;-93
2022/02/20 00:27:36;;;;;;;0.93;0.50;;;7.50;99.90;;;;;;6366372;22;20173;-93
2022/02/20 00:30:23;;;;;;;2.37;0.60;;;7.50;99.90;;;;;;6361421;22;20550;-93
2022/02/20 00:32:58;;;;;;;1.20;0.50;;;7.40;99.90;;;;;;6359868;22;20169;-94
2022/02/20 00:35:30;;;;;;;1.87;0.67;;;7.40;99.90;;;;;;6357205;22;20176;-92
2022/02/20 00:38:04;;;;;;;0.90;0.67;;;7.50;99.90;;;;;;6323125;22;20620;-93
2022/02/20 00:40:36;;;;;;;1.10;0.70;;;7.50;99.90;;;;;;6334346;22;20222;-93
2022/02/20 00:43:08;;;;;;;2.70;1.33;;;7.50;99.90;;;;;;6329203;22;20166;-93
2022/02/20 00:45:42;;;;;;;0.70;0.60;;;7.50;99.90;;;;;;6328571;22;20186;-93
2022/02/20 00:48:17;;;;;;;1.10;0.80;;;7.40;99.90;;;;;;6322288;22;20181;-93
2022/02/20 00:50:50;;;;;;;3.33;3.13;;;7.40;99.90;;;;;;6326084;22;20170;-94
2022/02/20 00:53:23;;;;;;;1.10;1.10;;;7.40;99.90;;;;;;6327122;22;20182;-94
2022/02/20 00:55:55;;;;;;;2.47;2.27;;;7.40;99.90;;;;;;6325944;22;20167;-92
2022/02/20 00:58:29;;;;;;;0.60;0.60;;;7.40;99.90;;;;;;6328973;22;20276;-92
2022/02/20 01:01:04;;;;;;;1.37;0.80;;;7.40;99.90;;;;;;6331878;22;20170;-94
2022/02/20 01:03:35;;;;;;;1.17;0.70;;;7.30;99.90;;;;;;6314655;22;20242;-92
2022/02/20 01:06:08;;;;;;;9.80;1.63;;;7.40;99.90;;;;;;6314491;22;20610;-93
2022/02/20 01:08:41;;;;;;;0.90;0.67;;;7.30;99.90;;;;;;6321339;22;20173;-93
2022/02/20 01:11:14;;;;;;;69.47;6.93;;;7.30;99.90;;;;;;6325976;22;20157;-93
2022/02/20 01:13:47;;;;;;;0.63;0.50;;;7.40;99.90;;;;;;6319562;22;20162;-93
2022/02/20 01:16:21;;;;;;;0.80;0.70;;;7.40;99.90;;;;;;6335058;22;20188;-94
2022/02/20 01:18:52;;;;;;;0.60;0.60;;;7.40;99.90;;;;;;6333411;22;20166;-93
2022/02/20 01:21:23;;;;;;;1.00;0.90;;;7.40;99.90;;;;;;6324859;22;20163;-93
2022/02/20 01:23:54;;;;;;;2.63;1.37;;;7.40;99.90;;;;;;6320296;22;20180;-93
2022/02/20 01:26:25;;;;;;;1.00;0.70;;;7.40;99.90;;;;;;6315024;22;20234;-94
2022/02/20 01:28:56;;;;;;;2.03;1.60;;;7.30;99.90;;;;;;6312186;22;20737;-94
2022/02/20 01:31:29;;;;;;;1.53;1.10;;;7.30;99.90;;;;;;6314485;22;20198;-93
2022/02/20 01:34:01;;;;;;;1.23;0.77;;;7.30;99.90;;;;;;6313942;22;20162;-92
2022/02/20 01:36:32;;;;;;;0.80;0.80;;;7.30;99.90;;;;;;6313012;22;20166;-92
2022/02/20 01:39:04;;;;;;;1.37;0.77;;;7.40;99.90;;;;;;6311293;22;20226;-92
2022/02/20 01:41:36;;;;;;;1.33;0.80;;;7.30;99.90;;;;;;6313306;22;20609;-93
2022/02/20 01:44:09;;;;;;;0.67;0.67;;;7.40;99.90;;;;;;6321036;22;20170;-94
2022/02/20 01:46:47;;;;;;;2.00;1.00;;;7.40;99.90;;;;;;6320216;22;20504;-95
2022/02/20 01:49:19;;;;;;;1.10;1.00;;;7.40;99.90;;;;;;6317405;22;20170;-92
2022/02/20 01:51:52;;;;;;;0.80;0.80;;;7.30;99.90;;;;;;6327558;22;20166;-93
2022/02/20 01:54:23;;;;;;;1.07;0.83;;;7.40;99.90;;;;;;6320757;22;20224;-93
2022/02/20 01:56:56;;;;;;;1.40;0.90;;;7.40;99.90;;;;;;6312373;22;20670;-94
2022/02/20 01:59:28;;;;;;;1.27;0.90;;;7.40;99.90;;;;;;6314254;22;20171;-94
2022/02/20 02:02:02;;;;;;;1.17;0.80;;;7.40;99.90;;;;;;6314043;22;20196;-93
2022/02/20 02:04:33;;;;;;;1.07;0.67;;;7.40;99.90;;;;;;6313044;22;20200;-94
2022/02/20 02:07:06;;;;;;;1.33;0.80;;;7.40;99.90;;;;;;6315591;22;20208;-94
2022/02/20 02:09:36;;;;;;;1.57;0.87;;;7.40;99.90;;;;;;6321612;22;20646;-92
2022/02/20 02:12:09;;;;;;;1.17;0.60;;;7.40;99.90;;;;;;6321445;22;20213;-93
2022/02/20 02:14:57;;;;;;;1.57;0.70;;;7.40;99.90;;;;;;6314954;22;20182;-94
2022/02/20 02:17:30;;;;;;;1.03;0.93;;;7.40;99.90;;;;;;6317524;22;20568;-92
2022/02/20 02:20:01;;;;;;;1.83;0.90;;;7.40;99.90;;;;;;6314786;22;20193;-93
2022/02/20 02:22:34;;;;;;;1.37;0.80;;;7.40;99.90;;;;;;6313542;22;20178;-94
2022/02/20 02:25:06;;;;;;;1.40;1.07;;;7.40;99.90;;;;;;6315747;22;20647;-94
2022/02/20 02:27:38;;;;;;;0.73;0.70;;;7.40;99.90;;;;;;6314442;22;20205;-93
2022/02/20 02:30:12;;;;;;;0.90;0.83;;;7.40;99.90;;;;;;6329766;22;20166;-92
2022/02/20 02:32:43;;;;;;;1.10;0.90;;;7.40;99.90;;;;;;6334291;22;20181;-93
2022/02/20 02:35:14;;;;;;;0.80;0.80;;;7.40;99.90;;;;;;6334552;22;20160;-96
2022/02/20 02:37:47;;;;;;;1.37;1.13;;;7.40;99.90;;;;;;6333413;22;20193;-93
2022/02/20 02:40:18;;;;;;;2.73;1.10;;;7.40;99.90;;;;;;6334643;22;20166;-93
2022/02/20 02:42:49;;;;;;;1.43;0.83;;;7.40;99.90;;;;;;6334883;22;20158;-93
2022/02/20 02:45:25;;;;;;;1.33;0.80;;;7.40;99.90;;;;;;6332726;22;20188;-93
2022/02/20 02:47:56;;;;;;;0.97;0.83;;;7.40;99.90;;;;;;6330936;22;20208;-92
2022/02/20 02:50:28;;;;;;;1.33;0.90;;;7.40;99.90;;;;;;6329773;22;20167;-93
2022/02/20 02:53:00;;;;;;;0.97;0.80;;;7.40;99.90;;;;;;6328205;22;20175;-92
2022/02/20 02:55:32;;;;;;;1.13;0.93;;;7.40;99.90;;;;;;6327708;22;20174;-90
2022/02/20 02:58:03;;;;;;;1.97;0.80;;;7.50;99.90;;;;;;6327562;22;20188;-92
2022/02/20 03:00:35;;;;;;;1.27;0.80;;;7.50;99.90;;;;;;6330868;22;20222;-93
2022/02/20 03:03:06;;;;;;;1.17;0.73;;;7.50;99.90;;;;;;6328441;22;20228;-93
2022/02/20 03:05:37;;;;;;;1.23;1.13;;;7.50;99.90;;;;;;6327532;22;20170;-92
2022/02/20 03:08:10;;;;;;;0.80;0.70;;;7.40;99.90;;;;;;6325638;22;20202;-92
2022/02/20 03:10:42;;;;;;;0.77;0.70;;;7.50;99.90;;;;;;6329709;22;20162;-94
2022/02/20 03:13:13;;;;;;;1.27;0.73;;;7.40;99.90;;;;;;6333998;22;20181;-93
2022/02/20 03:15:44;;;;;;;0.80;0.70;;;7.40;99.90;;;;;;6331772;22;20179;-94
2022/02/20 03:18:17;;;;;;;0.70;0.70;;;7.50;99.90;;;;;;6327920;22;20190;-94
2022/02/20 03:20:48;;;;;;;0.60;0.40;;;7.50;99.90;;;;;;6316257;22;20195;-93
2022/02/20 03:23:21;;;;;;;1.63;1.40;;;7.50;99.90;;;;;;6326740;22;20185;-92
2022/02/20 03:25:52;;;;;;;0.70;0.53;;;7.50;99.90;;;;;;6327321;22;20185;-92
2022/02/20 03:28:23;;;;;;;0.77;0.57;;;7.40;99.90;;;;;;6321065;22;20202;-93
2022/02/20 03:30:55;;;;;;;1.33;0.70;;;7.50;99.90;;;;;;6321848;22;20185;-91
2022/02/20 03:33:26;;;;;;;1.47;0.70;;;7.50;99.90;;;;;;6333650;22;20165;-94
2022/02/20 03:35:57;;;;;;;0.50;0.50;;;7.50;99.90;;;;;;6334213;22;20190;-93
2022/02/20 03:38:30;;;;;;;0.60;0.50;;;7.50;99.90;;;;;;6332901;22;20174;-93
2022/02/20 03:41:02;;;;;;;1.03;0.47;;;7.50;99.90;;;;;;6331994;22;20278;-92
2022/02/20 03:43:33;;;;;;;2.27;0.50;;;7.50;99.90;;;;;;6321652;22;20228;-94
2022/02/20 03:46:05;;;;;;;1.33;0.73;;;7.50;99.90;;;;;;6322921;22;20227;-94
2022/02/20 03:48:36;;;;;;;0.77;0.60;;;7.50;99.90;;;;;;6319612;22;20217;-93
2022/02/20 03:51:07;;;;;;;0.40;0.40;;;7.40;99.90;;;;;;6317975;22;20178;-93
2022/02/20 03:53:39;;;;;;;1.93;0.67;;;7.30;99.90;;;;;;6316657;22;20178;-93
2022/02/20 03:56:11;;;;;;;0.60;0.60;;;7.40;99.90;;;;;;6316301;22;20174;-94
2022/02/20 03:58:43;;;;;;;1.47;0.43;;;7.30;99.90;;;;;;6316260;22;20230;-92
2022/02/20 04:01:15;;;;;;;0.70;0.70;;;7.30;99.90;;;;;;6314811;22;20175;-94
2022/02/20 04:03:46;;;;;;;0.40;0.40;;;7.30;99.90;;;;;;6315826;22;20189;-95
2022/02/20 04:06:17;;;;;;;0.63;0.50;;;7.30;99.90;;;;;;6317361;22;20621;-93
2022/02/20 04:08:50;;;;;;;2.53;0.67;;;7.20;99.90;;;;;;6315153;22;20202;-93
2022/02/20 04:11:23;;;;;;;0.93;0.80;;;7.10;99.90;;;;;;6317448;22;20163;-94
2022/02/20 04:13:54;;;;;;;1.77;0.70;;;7.10;99.90;;;;;;6318340;22;20162;-93
2022/02/20 04:16:25;;;;;;;2.27;0.60;;;7.10;99.90;;;;;;6315107;22;20196;-94
2022/02/20 04:18:57;;;;;;;1.60;0.80;;;7.10;99.90;;;;;;6316585;22;20518;-94
2022/02/20 04:21:28;;;;;;;0.60;0.57;;;7.10;99.90;;;;;;6315584;22;20183;-95
2022/02/20 04:24:01;;;;;;;0.83;0.60;;;7.10;99.90;;;;;;6316989;22;20174;-92
2022/02/20 04:26:32;;;;;;;1.40;0.50;;;7.20;99.90;;;;;;6319200;22;20167;-93
2022/02/20 04:29:03;;;;;;;1.30;0.70;;;7.20;99.90;;;;;;6316308;22;20513;-92
2022/02/20 04:31:36;;;;;;;1.23;0.50;;;7.30;99.90;;;;;;6315745;22;20994;-93
2022/02/20 04:34:07;;;;;;;0.57;0.50;;;7.20;99.90;;;;;;6316570;22;20485;-92
2022/02/20 04:36:38;;;;;;;0.70;0.50;;;7.30;99.90;;;;;;6321451;22;20198;-93
2022/02/20 04:39:11;;;;;;;0.70;0.50;;;7.30;99.90;;;;;;6316852;22;20187;-93
2022/02/20 04:41:43;;;;;;;0.60;0.53;;;7.20;99.90;;;;;;6317030;22;20201;-93
2022/02/20 04:44:14;;;;;;;1.67;0.40;;;7.20;99.90;;;;;;6317466;22;20597;-92
2022/02/20 04:46:45;;;;;;;1.37;0.30;;;7.20;99.90;;;;;;6314020;22;20166;-95
2022/02/20 04:49:16;;;;;;;2.23;0.40;;;7.20;99.90;;;;;;6314666;22;20174;-92
2022/02/20 04:51:48;;;;;;;1.80;0.60;;;7.20;99.90;;;;;;6315226;22;20169;-93
2022/02/20 04:54:21;;;;;;;0.40;0.40;;;7.20;99.90;;;;;;6313969;22;20190;-92
2022/02/20 04:56:52;;;;;;;0.60;0.60;;;7.20;99.90;;;;;;6314413;22;20220;-91
2022/02/20 04:59:24;;;;;;;0.63;0.60;;;7.20;99.90;;;;;;6315025;22;20178;-92
2022/02/20 05:01:55;;;;;;;2.50;0.47;;;7.10;99.90;;;;;;6315103;22;20189;-92
2022/02/20 05:04:26;;;;;;;1.20;0.60;;;7.10;99.90;;;;;;6314037;22;20182;-93
2022/02/20 05:06:58;;;;;;;0.50;0.50;;;7.10;99.90;;;;;;6315112;22;20178;-92
2022/02/20 05:09:31;;;;;;;1.43;0.53;;;7.10;99.90;;;;;;6314716;22;20207;-94
2022/02/20 05:12:03;;;;;;;1.33;0.57;;;7.00;99.90;;;;;;6314476;22;20173;-93
2022/02/20 05:14:34;;;;;;;1.37;0.50;;;7.00;99.90;;;;;;6316190;22;20178;-93
2022/02/20 05:17:06;;;;;;;0.60;0.50;;;6.90;99.90;;;;;;6314255;22;20178;-93
2022/02/20 05:19:36;;;;;;;1.83;0.50;;;6.90;99.90;;;;;;6314944;22;20496;-93
2022/02/20 05:22:07;;;;;;;2.40;0.53;;;6.80;99.90;;;;;;6315569;22;20652;-92
2022/02/20 05:24:40;;;;;;;2.40;0.60;;;6.80;99.90;;;;;;6316125;22;20582;-92
2022/02/20 05:27:11;;;;;;;0.90;0.70;;;6.70;99.90;;;;;;6326321;22;20196;-93
2022/02/20 05:29:43;;;;;;;2.13;0.80;;;6.70;99.90;;;;;;6332305;22;20188;-92
2022/02/20 05:32:23;;;;;;;2.73;0.70;;;6.70;99.90;;;;;;6325576;22;20170;-92
2022/02/20 05:34:53;;;;;;;1.63;0.70;;;6.70;99.90;;;;;;6317781;22;20166;-92
2022/02/20 05:37:25;;;;;;;1.90;0.70;;;6.70;99.90;;;;;;6317221;22;20201;-92
2022/02/20 05:39:57;;;;;;;1.60;0.57;;;6.70;99.90;;;;;;6329302;22;20186;-93
2022/02/20 05:42:28;;;;;;;1.67;0.60;;;6.70;99.90;;;;;;6324788;22;20166;-93
2022/02/20 05:45:02;;;;;;;0.90;0.50;;;6.70;99.90;;;;;;6324768;22;20201;-93
2022/02/20 05:47:33;;;;;;;3.40;0.50;;;6.60;99.90;;;;;;6326889;22;20166;-90
2022/02/20 05:50:06;;;;;;;1.03;0.57;;;6.60;99.90;;;;;;6333624;22;20177;-92
2022/02/20 05:52:37;;;;;;;0.60;0.47;;;6.60;99.90;;;;;;6331574;22;20264;-91
2022/02/20 05:55:11;;;;;;;0.63;0.40;;;6.50;99.90;;;;;;6333654;22;20151;-93
2022/02/20 05:57:46;;;;;;;1.10;0.40;;;6.50;99.90;;;;;;6331920;22;20179;-90
2022/02/20 06:00:23;;;;;;;0.70;0.50;;;6.50;99.90;;;;;;6335091;22;20154;-92
2022/02/20 06:02:55;;;;;;;1.50;0.60;;;6.40;99.90;;;;;;6324924;22;20166;-93
2022/02/20 06:05:26;;;;;;;0.80;0.47;;;6.40;99.90;;;;;;6316428;22;20502;-93
2022/02/20 06:07:56;;;;;;;0.30;0.30;;;6.40;99.90;;;;;;6314144;22;20526;-92
2022/02/20 06:10:30;;;;;;;0.57;0.50;;;6.40;99.90;;;;;;6314109;22;20162;-93
2022/02/20 06:13:01;;;;;;;0.90;0.43;;;6.40;99.90;;;;;;6319879;22;20605;-92
2022/02/20 06:15:32;;;;;;;0.77;0.63;;;6.30;99.90;;;;;;6315681;22;20342;-92
2022/02/20 06:18:05;;;;;;;0.53;0.40;;;6.30;99.90;;;;;;6311653;22;20171;-92
2022/02/20 06:20:36;;;;;;;0.33;0.30;;;6.30;99.90;;;;;;6323017;22;20167;-92
2022/02/20 06:23:07;;;;;;;0.87;0.50;;;6.20;99.90;;;;;;6324999;22;20243;-93
2022/02/20 06:25:39;;;;;;;0.63;0.40;;;6.20;99.90;;;;;;6325573;22;20174;-91
2022/02/20 06:28:10;;;;;;;0.47;0.40;;;6.20;99.90;;;;;;6318711;22;20201;-93
2022/02/20 06:30:57;;;;;;;0.63;0.40;;;6.20;99.90;;;;;;6330766;22;20178;-93
2022/02/20 06:33:29;;;;;;;0.67;0.47;;;6.20;99.90;;;;;;6323612;22;20185;-93
2022/02/20 06:36:00;;;;;;;3.17;0.40;;;6.20;99.90;;;;;;6313892;22;20285;-94
2022/02/20 06:38:32;;;;;;;1.20;0.40;;;6.20;99.90;;;;;;6313008;22;20190;-92
2022/02/20 06:41:05;;;;;;;0.50;0.30;;;6.20;99.90;;;;;;6311619;22;20173;-93
2022/02/20 06:43:36;;;;;;;0.50;0.30;;;6.20;99.90;;;;;;6311652;22;20257;-92
2022/02/20 06:46:07;;;;;;;0.77;0.30;;;6.20;99.90;;;;;;6321039;22;20174;-92
2022/02/20 06:48:38;;;;;;;0.63;0.47;;;6.20;99.90;;;;;;6311832;22;20222;-92
2022/02/20 06:51:08;;;;;;;0.57;0.40;;;6.20;99.90;;;;;;6317297;22;20219;-92
2022/02/20 06:53:39;;;;;;;0.90;0.47;;;6.10;99.90;;;;;;6314322;22;20169;-95
2022/02/20 06:56:12;;;;;;;0.90;0.50;;;6.10;99.90;;;;;;6313220;22;20167;-94
2022/02/20 06:58:44;;;;;;;1.97;0.50;;;6.10;99.90;;;;;;6314487;22;20228;-93
2022/02/20 07:01:16;;;;;;;0.47;0.40;;;6.10;99.90;;;;;;6330215;22;20174;-93
2022/02/20 07:03:47;;;;;;;1.90;0.43;;;6.10;99.90;;;;;;6331015;22;20170;-92
2022/02/20 07:06:19;;;;;;;0.77;0.40;;;6.10;99.90;;;;;;6332753;22;20171;-92
2022/02/20 07:08:54;;;;;;;1.80;0.47;;;6.10;99.90;;;;;;6326977;22;20510;-93
2022/02/20 07:11:27;;;;;;;0.40;0.40;;;6.00;99.90;;;;;;6329390;22;20166;-91
2022/02/20 07:13:58;;;;;;;1.67;0.47;;;6.00;99.90;;;;;;6328327;22;20178;-93
2022/02/20 07:16:29;;;;;;;0.60;0.60;;;6.00;99.90;;;;;;6314240;22;20221;-93
2022/02/20 07:19:00;;;;;;;0.73;0.40;;;6.00;99.90;;;;;;6312733;22;20166;-92
2022/02/20 07:21:31;;;;;;;0.77;0.47;;;6.00;99.90;;;;;;6312673;22;20167;-92
2022/02/20 07:24:05;;;;;;;0.63;0.40;;;6.00;99.90;;;;;;6315231;22;20174;-92
2022/02/20 07:26:37;;;;;;;0.70;0.60;;;5.90;99.90;;;;;;6315174;22;20163;-92
2022/02/20 07:29:08;;;;;;;0.40;0.40;;;5.90;99.90;;;;;;6313147;22;20678;-92
2022/02/20 07:31:39;;;;;;;1.63;0.40;;;5.90;99.90;;;;;;6313705;22;20170;-93
2022/02/20 07:34:10;;;;;;;0.47;0.40;;;5.90;99.90;;;;;;6313090;22;20285;-93
2022/02/20 07:36:42;;;;;;;1.10;0.40;;;5.80;99.90;;;;;;6311576;22;20178;-95
2022/02/20 07:39:15;;;;;;;3.17;0.67;;;5.80;99.90;;;;;;6312618;22;20198;-93
2022/02/20 07:41:48;;;;;;;2.03;0.57;;;5.80;99.90;;;;;;6312948;22;20167;-93
2022/02/20 07:44:19;;;;;;;0.60;0.40;;;5.90;99.90;;;;;;6312682;22;20167;-94
2022/02/20 07:46:52;;;;;;;1.10;0.50;;;5.80;99.90;;;;;;6311664;22;20178;-94
2022/02/20 07:49:23;;;;;;;2.10;0.40;;;5.80;99.90;;;;;;6312865;22;20191;-92
2022/02/20 07:51:54;;;;;;;1.50;0.50;;;5.80;99.90;;;;;;6312884;22;20487;-93
2022/02/20 07:54:26;;;;;;;0.80;0.50;;;5.80;99.90;;;;;;6311669;22;20235;-93
2022/02/20 07:56:58;;;;;;;0.77;0.40;;;5.90;99.90;;;;;;6311707;22;20174;-92
2022/02/20 07:59:30;;;;;;;1.57;0.40;;;5.90;99.90;;;;;;6311608;22;20197;-93
2022/02/20 08:02:01;;;;;;;1.47;0.50;;;5.90;99.90;;;;;;6312344;22;20196;-93
2022/02/20 08:04:32;;;;;;;1.90;0.40;;;5.90;99.90;;;;;;6312327;22;20178;-92
2022/02/20 08:07:08;;;;;;;0.47;0.27;;;5.90;99.90;;;;;;6313022;22;20483;-93
2022/02/20 08:09:38;;;;;;;0.87;0.30;;;5.90;99.90;;;;;;6312009;22;20193;-93
2022/02/20 08:12:12;;;;;;;2.93;0.53;;;5.90;99.90;;;;;;6331732;22;20155;-90
2022/02/20 08:14:42;;;;;;;0.73;0.40;;;5.90;99.90;;;;;;6333066;22;20167;-92
2022/02/20 08:17:13;;;;;;;0.60;0.30;;;5.80;99.90;;;;;;6327667;22;20181;-93
2022/02/20 08:19:44;;;;;;;2.63;0.70;;;5.80;99.90;;;;;;6315208;22;20175;-93
2022/02/20 08:22:15;;;;;;;1.57;0.50;;;5.80;99.90;;;;;;6315434;22;20166;-92
2022/02/20 08:24:46;;;;;;;1.83;0.40;;;5.70;99.90;;;;;;6314703;22;20185;-92
2022/02/20 08:27:19;;;;;;;1.63;0.40;;;5.70;99.90;;;;;;6311985;22;20178;-93
2022/02/20 08:29:49;;;;;;;2.33;0.40;;;5.70;99.90;;;;;;6313358;22;20202;-93
2022/02/20 08:32:21;;;;;;;1.03;0.40;;;5.70;99.90;;;;;;6312484;22;20186;-92
2022/02/20 08:34:52;;;;;;;2.23;0.57;;;5.70;99.90;;;;;;6311739;22;20174;-93
2022/02/20 08:37:23;;;;;;;2.60;0.50;;;5.70;99.90;;;;;;6311172;22;20166;-92
2022/02/20 08:39:55;;;;;;;1.13;0.50;;;5.70;99.90;;;;;;6312143;22;20499;-93
2022/02/20 08:42:28;;;;;;;1.33;0.50;;;5.70;99.90;;;;;;6312567;22;20244;-94
2022/02/20 08:44:59;;;;;;;0.87;0.60;;;5.70;99.90;;;;;;6311626;22;20175;-93
2022/02/20 08:47:31;;;;;;;2.50;0.73;;;5.70;99.90;;;;;;6311809;22;20170;-92
2022/02/20 08:50:02;;;;;;;0.87;0.57;;;5.70;99.90;;;;;;6314127;22;20237;-93
2022/02/20 08:52:33;;;;;;;1.07;0.40;;;5.70;99.90;;;;;;6314211;22;20166;-92
2022/02/20 08:55:05;;;;;;;2.00;0.40;;;5.70;99.90;;;;;;6316101;22;20166;-92
2022/02/20 08:57:38;;;;;;;1.30;0.50;;;5.70;99.90;;;;;;6312721;22;20182;-93
2022/02/20 09:00:11;;;;;;;1.30;0.47;;;5.70;99.90;;;;;;6313809;22;20173;-91
2022/02/20 09:02:42;;;;;;;0.97;0.50;;;5.70;99.90;;;;;;6313567;22;20167;-93
2022/02/20 09:05:14;;;;;;;2.47;0.53;;;5.70;99.90;;;;;;6312879;22;20178;-93
2022/02/20 09:07:45;;;;;;;0.93;0.50;;;5.60;99.90;;;;;;6312637;22;20262;-93
2022/02/20 09:10:16;;;;;;;1.50;0.50;;;5.60;99.90;;;;;;6310753;22;20565;-92
2022/02/20 09:12:50;;;;;;;1.93;0.50;;;5.60;99.90;;;;;;6313260;22;20213;-92
2022/02/20 09:15:21;;;;;;;2.30;0.50;;;5.60;99.90;;;;;;6312999;22;20270;-93
2022/02/20 09:17:52;;;;;;;0.70;0.40;;;5.60;99.90;;;;;;6312934;22;20179;-92
2022/02/20 09:20:25;;;;;;;1.00;0.60;;;5.60;99.90;;;;;;6313335;22;20205;-92
2022/02/20 09:22:56;;;;;;;1.27;0.37;;;5.60;99.90;;;;;;6313427;22;20167;-92
2022/02/20 09:25:28;;;;;;;2.10;0.30;;;5.60;99.90;;;;;;6312618;22;20185;-91
2022/02/20 09:28:00;;;;;;;0.60;0.40;;;5.60;99.90;;;;;;6313450;22;20174;-93
2022/02/20 09:30:31;;;;;;;1.90;0.40;;;5.60;99.90;;;;;;6313984;22;20353;-93
2022/02/20 09:33:02;;;;;;;0.93;0.40;;;5.60;99.90;;;;;;6313908;22;20166;-92
2022/02/20 09:35:33;;;;;;;1.50;0.63;;;5.60;99.90;;;;;;6314656;22;20166;-92
2022/02/20 09:38:09;;;;;;;1.63;0.80;;;5.60;99.90;;;;;;6313077;22;20186;-93
2022/02/20 09:40:40;;;;;;;1.07;0.40;;;5.60;99.90;;;;;;6313773;22;20235;-93
2022/02/20 09:43:17;;;;;;;0.90;0.50;;;5.60;99.90;;;;;;6312752;22;20167;-92
2022/02/20 09:45:51;;;;;;;0.87;0.37;;;5.60;99.90;;;;;;6312555;22;20639;-94
2022/02/20 09:48:22;;;;;;;1.93;0.50;;;5.60;99.90;;;;;;6310719;22;20202;-92
2022/02/20 09:50:53;;;;;;;3.30;0.40;;;5.50;99.90;;;;;;6312276;22;20222;-92
2022/02/20 09:53:24;;;;;;;2.20;0.70;;;5.50;99.90;;;;;;6313469;22;20666;-93
2022/02/20 09:55:56;;;;;;;1.90;0.37;;;5.50;99.90;;;;;;6313452;22;20174;-93
2022/02/20 09:58:28;;;;;;;0.83;0.40;;;5.50;99.90;;;;;;6312751;22;20174;-92
2022/02/20 10:01:06;;;;;;;3.67;0.80;;;5.50;99.90;;;;;;6312558;22;20174;-94
2022/02/20 10:03:40;;;;;;;1.20;0.43;;;5.50;99.90;;;;;;6318676;22;20173;-91
2022/02/20 10:06:13;;;;;;;1.03;0.50;;;5.50;99.90;;;;;;6313219;22;20525;-93
2022/02/20 10:08:46;;;;;;;2.67;0.40;;;5.50;99.90;;;;;;6312037;22;20182;-93
2022/02/20 10:11:20;;;;;;;2.20;0.53;;;5.50;99.90;;;;;;6313881;22;20273;-92
2022/02/20 10:13:53;;;;;;;2.20;1.63;;;5.50;99.90;;;;;;6314623;22;20162;-93
2022/02/20 10:16:26;;;;;;;2.43;0.40;;;5.50;99.90;;;;;;6313111;22;20198;-93
2022/02/20 10:19:00;;;;;;;1.13;0.57;;;5.50;99.90;;;;;;6312144;22;20870;-94
2022/02/20 10:21:33;;;;;;;2.00;0.63;;;5.50;99.90;;;;;;6313555;22;20196;-93
2022/02/20 10:24:08;;;;;;;1.47;0.53;;;5.50;99.90;;;;;;6313477;22;20174;-93
2022/02/20 10:26:44;;;;;;;1.07;0.37;;;5.50;99.90;;;;;;6338599;22;20209;-93
2022/02/20 10:29:20;;;;;;;3.77;0.50;;;5.50;99.90;;;;;;6363382;22;20172;-93
2022/02/20 10:31:52;;;;;;;1.50;0.53;;;5.50;99.90;;;;;;6366420;22;20193;-93
2022/02/20 10:34:25;;;;;;;0.20;0.20;;;5.50;99.90;;;;;;6362137;22;20166;-93
2022/02/20 10:36:57;;;;;;;1.43;0.40;;;5.60;99.90;;;;;;6346646;22;20181;-92
2022/02/20 10:39:31;;;;;;;0.23;0.23;;;5.60;99.90;;;;;;6346668;22;20198;-93
2022/02/20 10:42:11;;;;;;;2.10;0.53;;;5.50;99.90;;;;;;6344841;22;20169;-92
2022/02/20 10:44:56;;;;;;;0.60;0.27;;;5.50;99.90;;;;;;6343600;22;20189;-93
2022/02/20 10:47:28;;;;;;;1.20;0.50;;;5.50;99.90;;;;;;6342628;22;20223;-93
2022/02/20 10:50:16;;;;;;;1.80;0.60;;;5.50;99.90;;;;;;6344409;22;20174;-93
2022/02/20 10:52:47;;;;;;;1.00;0.50;;;5.40;99.90;;;;;;6345107;22;20165;-94
2022/02/20 10:55:18;;;;;;;0.60;0.33;;;5.40;99.90;;;;;;6344638;22;20534;-91
2022/02/20 10:57:51;;;;;;;1.97;0.50;;;5.40;99.90;;;;;;6342371;22;20166;-93
2022/02/20 11:00:24;;;;;;;1.13;0.37;;;5.40;99.90;;;;;;6351634;22;20593;-91
2022/02/20 11:03:08;;;;;;;0.63;0.50;;;5.40;99.90;;;;;;6345909;22;20165;-92
2022/02/20 11:05:40;;;;;;;1.27;0.50;;;5.40;99.90;;;;;;6345499;22;20166;-92
2022/02/20 11:08:13;;;;;;;1.53;0.50;;;5.40;99.90;;;;;;6343953;22;20491;-92
2022/02/20 11:10:45;;;;;;;2.10;0.70;;;5.30;99.90;;;;;;6342944;22;20202;-93
2022/02/20 11:13:17;;;;;;;1.30;0.43;;;5.30;99.90;;;;;;6343160;22;20204;-93
2022/02/20 11:15:52;;;;;;;1.63;0.60;;;5.30;99.90;;;;;;6342368;22;20260;-92
2022/02/20 11:18:23;;;;;;;1.90;0.50;;;5.40;99.90;;;;;;6343456;22;20181;-92
2022/02/20 11:20:56;;;;;;;1.37;0.43;;;5.40;99.90;;;;;;6344180;22;20162;-92
2022/02/20 11:23:28;;;;;;;0.63;0.40;;;5.40;99.90;;;;;;6344244;22;20186;-93
2022/02/20 11:26:00;;;;;;;3.27;0.83;;;5.30;99.90;;;;;;6344545;22;20635;-93
2022/02/20 11:28:32;;;;;;;3.27;0.57;;;5.40;99.90;;;;;;6341981;22;20631;-94
2022/02/20 11:31:06;;;;;;;0.83;0.40;;;5.40;99.90;;;;;;6343417;22;20227;-94
2022/02/20 11:33:37;;;;;;;1.27;0.40;;;5.40;99.90;;;;;;6343643;22;20166;-94
2022/02/20 11:36:11;;;;;;;0.70;0.60;;;5.40;99.90;;;;;;6345303;22;20166;-94
2022/02/20 11:39:02;;;;;;;0.77;0.40;;;5.40;99.90;;;;;;6345507;22;20178;-92
2022/02/20 11:41:33;;;;;;;0.40;0.30;;;5.40;99.90;;;;;;6343249;22;20188;-93
2022/02/20 11:44:15;;;;;;;2.50;0.93;;;5.40;99.90;;;;;;6344709;22;20185;-92
2022/02/20 11:46:53;;;;;;;1.10;0.57;;;5.40;99.90;;;;;;6344449;22;20177;-94
2022/02/20 11:49:30;;;;;;;3.20;0.50;;;5.40;99.90;;;;;;6343363;22;20190;-93
2022/02/20 11:52:11;;;;;;;3.03;0.50;;;5.30;99.90;;;;;;6345259;22;20201;-93
2022/02/20 11:54:43;;;;;;;1.67;0.80;;;5.30;99.90;;;;;;6320778;22;20169;-92
2022/02/20 11:57:32;;;;;;;2.33;0.70;;;5.30;99.90;;;;;;6353763;22;20596;-91
2022/02/20 12:00:23;;;;;;;1.77;0.50;;;5.30;99.90;;;;;;6364606;22;20165;-94
2022/02/20 12:03:19;;;;;;;3.17;0.53;;;5.30;99.90;;;;;;6364266;22;20158;-92
2022/02/20 12:06:32;;;;;;;1.17;0.40;;;5.30;99.90;;;;;;6360579;22;20162;-93
2022/02/20 12:09:02;;;;;;;0.70;0.60;;;5.20;99.90;;;;;;6320596;22;20173;-93
2022/02/20 12:11:44;;;;;;;1.47;0.47;;;5.20;99.90;;;;;;6349117;22;20227;-92
2022/02/20 12:14:22;;;;;;;0.40;0.30;;;5.20;99.90;;;;;;6355345;22;20223;-92
2022/02/20 12:16:56;;;;;;;1.13;0.47;;;5.10;99.90;;;;;;6351436;22;20177;-93
2022/02/20 12:19:37;;;;;;;1.00;0.40;;;5.10;99.90;;;;;;6356954;22;20166;-92
2022/02/20 12:22:13;;;;;;;1.43;0.40;;;5.10;99.90;;;;;;6301184;22;20166;-92
2022/02/20 12:24:50;;;;;;;0.47;0.20;;;5.10;99.90;;;;;;6349145;22;20180;-93
2022/02/20 12:27:24;;;;;;;2.50;0.40;;;5.10;99.90;;;;;;6344688;22;20205;-95
2022/02/20 12:29:56;;;;;;;0.60;0.37;;;5.10;99.90;;;;;;6345541;22;20198;-92
2022/02/20 12:32:29;;;;;;;0.40;0.40;;;5.10;99.90;;;;;;6345598;22;20236;-92
2022/02/20 12:35:20;;;;;;;2.10;0.60;;;5.10;99.90;;;;;;6345806;22;20587;-93
2022/02/20 12:37:53;;;;;;;0.93;0.50;;;5.10;99.90;;;;;;6344937;22;20189;-92
2022/02/20 12:40:26;;;;;;;1.10;0.50;;;5.10;99.90;;;;;;6345944;22;20613;-93
2022/02/20 12:42:59;;;;;;;1.23;0.67;;;5.10;99.90;;;;;;6347889;22;20161;-92
2022/02/20 12:45:31;;;;;;;1.90;0.40;;;5.10;99.90;;;;;;6360351;22;20185;-93
2022/02/20 12:48:05;;;;;;;1.53;0.50;;;5.10;99.90;;;;;;6367193;22;20169;-92
2022/02/20 12:50:39;;;;;;;3.67;0.43;;;5.10;99.90;;;;;;6367473;22;20160;-92
2022/02/20 12:53:11;;;;;;;1.43;0.43;;;5.10;99.90;;;;;;6359468;22;20307;-93
2022/02/20 12:55:43;;;;;;;1.30;0.57;;;5.10;99.90;;;;;;6361412;22;20173;-91
2022/02/20 12:58:17;;;;;;;1.17;0.40;;;5.10;99.90;;;;;;6358132;22;20168;-94
2022/02/20 13:00:49;;;;;;;1.03;0.63;;;5.10;99.90;;;;;;6357976;22;20166;-94
2022/02/20 13:03:22;;;;;;;2.00;0.50;;;5.10;99.90;;;;;;6355914;22;20619;-92
2022/02/20 13:05:57;;;;;;;1.00;0.43;;;5.10;99.90;;;;;;6354726;22;20176;-93
2022/02/20 13:08:32;;;;;;;1.23;0.40;;;5.10;99.90;;;;;;6355045;22;20188;-91
2022/02/20 13:11:05;;;;;;;2.73;0.70;;;5.20;99.90;;;;;;6345947;22;20173;-93
2022/02/20 13:13:36;;;;;;;0.97;0.60;;;5.20;99.90;;;;;;6345279;22;20197;-93
2022/02/20 13:16:13;;;;;;;1.53;0.80;;;5.20;99.90;;;;;;6344715;22;20639;-93
2022/02/20 13:18:46;;;;;;;1.70;0.77;;;5.20;99.90;;;;;;6344124;22;20177;-93
2022/02/20 13:21:18;;;;;;;1.87;0.50;;;5.20;99.90;;;;;;6344173;22;20184;-93
2022/02/20 13:23:51;;;;;;;1.93;0.60;;;5.20;99.90;;;;;;6345205;22;20639;-93
2022/02/20 13:26:24;;;;;;;0.87;0.60;;;5.10;99.90;;;;;;6345143;22;20241;-94
2022/02/20 13:28:56;;;;;;;2.37;0.70;;;5.00;99.90;;;;;;6342783;22;20181;-93